Flight Information

DEPARTURE
BOZEMAN, MT
Elevation:
4473
Runways:
11G/29G - 2802x80 - TURF-G
11/29 - 5050x75 - ASPH-G
12/30 - 8994x150 - ASPH-G
3/21 - 2650x75 - ASPH-G
Tower:
118.2
DESTINATION
,
Elevation:
TPA:
1000 (est.)


6274.3 NM75° True-16° Var58° HDG

Flight Plan:
(click to file on line)

1. Type
2. Aircraft Identification
3. Aircraft Type / Special Equipment
4. True Airspeed
kts
5. Departure Airport
(ICAO code)
6. Arriving Airport
(ICAO code)
7. Cruising Altitude
ft
8. Alternate Airport
(ICAO code)
9. Route of Flight
10. Remarks


00:00:00 Departure ATIS: Destination ATIS:

Clearance Limit:
Route:
Altitude: Expect in minutes
Frequency:
Transponder: (7500 Hijack / 7600 Lost Comms / 7700 Emergency)


KBZN 190056Z 00000KT 10SM FEW050 FEW060 OVC110 M01/M04 A3032 RMK AO2 SLP302 T10061039
Time: 2021-01-19T00:56:00Z
1611021072
Winds: calm
Visibility: 10.0 sm
Clouds (AGL): FEW 5000
FEW 6000
OVC 11000
Temperature: -0.6 C
Dew Point: -3.9 C
Pressure: 30.318897 in Hgbr


Notes:

Data extracted from FAA Digital Chart Supplement. Effective: 0901Z Thursday, Dec 31, 2020 to 0901Z Thursday, Jan 28, 2021
Current ATIS data is provided courtisy of PilotEdge.